Time;durP1;ratioP1;P1;durP2;ratioP2;P2;SDS_P1;SDS_P2;PMS_P1;PMS_P2;Temp;Humidity;BMP_temperature;BMP_pressure;BME280_temperature;BME280_humidity;BME280_pressure;Samples;Min_cycle;Max_cycle;Signal;HPM_P1;HPM_P2
2022/07/14 00:53:59;;;;;;;;;8.00;8.00;;;;;28.19;57.93;101522.50;6323029;22;45343;-96
2022/07/14 01:28:33;;;;;;;;;;;;;;;;;;;;;
2022/07/14 03:03:36;;;;;;;;;4.33;4.33;;;;;26.27;63.29;101416.22;6329971;22;45117;-96
2022/07/14 03:09:52;;;;;;;;;3.67;3.67;;;;;26.19;64.06;101398.38;6251780;22;48781;-96
2022/07/14 03:12:18;;;;;;;;;4.00;4.00;;;;;26.25;64.06;101413.56;6268598;22;44828;-96
2022/07/14 03:48:17;;;;;;;;;9.67;7.00;;;;;25.79;66.54;101362.00;6311557;22;45378;-96
2022/07/14 03:50:56;;;;;;;;;5.00;5.00;;;;;25.70;66.52;101340.53;6318659;22;45285;-96
2022/07/14 03:56:32;;;;;;;;;6.00;6.00;;;;;25.66;67.20;101337.00;6354925;22;46380;-96
2022/07/14 03:59:01;;;;;;;;;7.00;6.00;;;;;25.55;67.13;101324.53;6307456;22;44839;-96
2022/07/14 04:02:28;;;;;;;;;4.00;4.00;;;;;25.55;67.21;101315.56;6333904;22;44763;-96
2022/07/14 04:05:24;;;;;;;;;5.00;5.00;;;;;25.48;67.69;101301.31;6290125;22;45739;-96
2022/07/14 04:08:35;;;;;;;;;6.67;6.00;;;;;25.42;67.54;101288.81;6268122;22;45693;-96
2022/07/14 04:11:19;;;;;;;;;;;;;;;;;;;;;
2022/07/14 04:13:56;;;;;;;;;6.00;6.00;;;;;25.42;68.10;101294.19;6227701;22;67859;-96
2022/07/14 04:16:58;;;;;;;;;6.33;6.33;;;;;25.52;68.31;101307.53;6220255;22;45199;-96
2022/07/14 04:19:34;;;;;;;;;;;;;;;;;;;;;
2022/07/14 04:22:12;;;;;;;;;6.00;5.00;;;;;25.46;68.72;101295.06;6218760;22;72332;-96
2022/07/14 04:25:13;;;;;;;;;6.00;6.00;;;;;25.32;68.96;101269.19;6170935;22;45524;-96
2022/07/14 04:27:40;;;;;;;;;5.33;5.33;;;;;25.34;68.94;101279.91;6188654;22;44767;-96
2022/07/14 04:30:07;;;;;;;;;5.67;5.67;;;;;25.33;69.16;101257.53;6221306;22;46215;-96
2022/07/14 04:32:33;;;;;;;;;6.33;6.33;;;;;25.34;69.27;101261.09;6199064;22;45914;-96
2022/07/14 04:35:12;;;;;;;;;7.67;7.67;;;;;25.35;69.52;101276.34;6205721;22;45410;-96
2022/07/14 04:37:53;;;;;;;;;6.00;6.00;;;;;25.42;69.33;101275.38;6196677;22;45579;-96
2022/07/14 04:40:42;;;;;;;;;5.67;5.33;;;;;25.31;69.41;101251.28;6205772;22;47479;-96
2022/07/14 04:44:00;;;;;;;;;6.00;6.00;;;;;25.33;69.73;101252.16;6226503;22;44695;-96
2022/07/14 04:53:25;;;;;;;;;;;;;;;;;;;;;
2022/07/14 04:56:26;;;;;;;;;;;;;;;;;;;;;
2022/07/14 04:58:58;;;;;;;;;5.33;5.00;;;;;25.25;70.39;101220.91;6068792;23;69119;-96
2022/07/14 05:04:32;;;;;;;;;6.00;6.00;;;;;25.35;70.65;101227.06;6062272;23;45529;-95
2022/07/14 05:07:03;;;;;;;;;8.67;6.67;;;;;25.26;71.09;101203.84;6062988;23;44848;-96
2022/07/14 05:09:35;;;;;;;;;6.67;6.00;;;;;25.23;71.25;101191.34;6049954;23;44748;-96
2022/07/14 05:12:13;;;;;;;;;12.00;7.00;;;;;25.23;71.19;101204.78;6074339;23;44847;-96
2022/07/14 05:17:14;;;;;;;;;7.33;5.67;;;;;25.28;71.19;101213.69;6325837;22;45225;-96
2022/07/14 05:19:40;;;;;;;;;5.67;5.67;;;;;25.19;71.48;101182.44;6296602;22;45197;-96
2022/07/14 05:22:11;;;;;;;;;7.00;6.00;;;;;25.19;71.55;101185.13;6290482;22;45041;-96
2022/07/14 05:24:37;;;;;;;;;5.00;5.00;;;;;25.22;71.47;101195.84;6289038;22;47260;-96
2022/07/14 05:27:30;;;;;;;;;6.33;6.33;;;;;25.20;71.63;101169.91;6315391;22;45219;-96
2022/07/14 05:30:01;;;;;;;;;8.00;8.00;;;;;25.40;71.76;101204.66;6323325;22;44852;-96
2022/07/14 05:32:57;;;;;;;;;6.33;6.33;;;;;25.30;71.98;101171.63;6300445;22;44876;-96
2022/07/14 05:42:13;;;;;;;;;11.67;9.33;;;;;25.46;72.17;101181.31;6294315;22;44864;-96
2022/07/14 05:45:04;;;;;;;;;6.33;6.33;;;;;25.64;72.37;101164.97;6294302;22;44815;-96
2022/07/14 05:47:42;;;;;;;;;;;;;;;;;;;;;
2022/07/14 05:50:15;;;;;;;;;7.67;7.00;;;;;25.74;71.92;101198.06;6282535;22;72742;-96
2022/07/14 05:53:16;;;;;;;;;;;;;;;;;;;;;
2022/07/14 05:55:52;;;;;;;;;;;;;;;;;;;;;
2022/07/14 06:02:28;;;;;;;;;7.67;7.67;;;;;26.34;71.74;101246.63;6227378;22;45128;-96
2022/07/14 06:06:07;;;;;;;;;;;;;;;;;;;;;
2022/07/14 06:21:06;;;;;;;;;8.33;7.00;;;;;26.81;71.03;101263.97;6311224;22;45447;-96
2022/07/14 06:24:01;;;;;;;;;9.33;8.00;;;;;26.80;70.46;101253.25;6253340;22;45414;-96
2022/07/14 06:27:35;;;;;;;;;;;;;;;;;;;;;
2022/07/14 06:41:39;;;;;;;;;10.67;10.67;;;;;27.03;70.81;101289.69;6306365;22;45997;-91
2022/07/14 06:44:04;;;;;;;;;6.00;6.00;;;;;27.13;70.54;101310.22;6312392;22;45543;-89
2022/07/14 06:46:32;;;;;;;;;11.00;11.00;;;;;27.14;70.64;101306.59;6337081;22;45422;-88
2022/07/14 06:48:57;;;;;;;;;13.33;8.00;;;;;27.21;70.52;101312.81;6332662;22;45347;-88
2022/07/14 06:51:23;;;;;;;;;9.00;9.00;;;;;27.34;70.48;101313.50;6332012;22;45304;-88
2022/07/14 06:53:48;;;;;;;;;9.00;9.00;;;;;27.50;70.75;101318.59;6303214;22;45345;-88
2022/07/14 06:56:13;;;;;;;;;8.33;7.67;;;;;27.55;70.14;101324.81;6304089;22;47048;-90
2022/07/14 06:58:39;;;;;;;;;11.00;10.33;;;;;27.59;70.50;101333.75;6333676;22;45337;-91
2022/07/14 07:01:07;;;;;;;;;11.33;9.00;;;;;27.65;70.11;101336.34;6304626;22;45464;-91
2022/07/14 07:03:32;;;;;;;;;10.00;9.67;;;;;27.78;70.17;101331.63;6344360;22;45478;-90
2022/07/14 07:08:45;;;;;;;;;8.00;8.00;;;;;27.91;70.11;101336.84;6346800;22;45629;-90
2022/07/14 07:11:13;;;;;;;;;10.00;8.33;;;;;27.92;69.77;101339.50;6353190;22;45620;-90
2022/07/14 07:13:38;;;;;;;;;9.00;8.33;;;;;27.93;69.58;101352.06;6324064;22;44807;-89
2022/07/14 07:16:05;;;;;;;;;10.67;8.67;;;;;27.97;69.25;101352.88;6351581;22;46247;-90
2022/07/14 07:18:32;;;;;;;;;10.33;8.00;;;;;28.12;69.76;101346.31;6349164;22;45245;-91
2022/07/14 07:20:58;;;;;;;;;9.00;9.00;;;;;28.23;69.63;101351.50;6348432;22;44701;-91
2022/07/14 07:23:23;;;;;;;;;11.33;8.67;;;;;28.47;69.19;101354.66;6349302;22;44742;-90
2022/07/14 07:25:54;;;;;;;;;8.00;8.00;;;;;28.66;69.19;101368.66;6348510;22;45527;-89
2022/07/14 07:28:19;;;;;;;;;12.00;9.00;;;;;28.80;69.11;101374.69;6294718;22;44688;-90
2022/07/14 07:30:45;;;;;;;;;9.00;8.00;;;;;28.86;68.83;101375.44;6308192;22;45411;-90
2022/07/14 07:33:10;;;;;;;;;11.00;8.00;;;;;28.87;68.10;101377.22;6303705;22;45267;-89
2022/07/14 07:35:35;;;;;;;;;9.00;9.00;;;;;28.88;68.30;101388.94;6306601;22;47070;-87
2022/07/14 07:38:01;;;;;;;;;8.00;8.00;;;;;28.84;67.98;101395.28;6331993;22;45626;-88
2022/07/14 07:40:26;;;;;;;;;7.00;7.00;;;;;28.78;68.34;101389.13;6305638;22;45336;-91
2022/07/14 07:42:52;;;;;;;;;10.67;9.67;;;;;28.76;67.98;101407.16;6311429;22;46047;-91
2022/07/14 07:45:17;;;;;;;;;9.00;9.00;;;;;28.73;67.77;101409.06;6341261;22;46268;-91
2022/07/14 07:47:43;;;;;;;;;8.67;8.33;;;;;28.78;68.72;101399.94;6309121;22;45671;-90
2022/07/14 07:50:09;;;;;;;;;8.00;8.00;;;;;28.82;68.33;101402.56;6305209;22;45309;-88
2022/07/14 07:52:34;;;;;;;;;9.00;7.67;;;;;28.84;68.21;101403.41;6305246;22;45429;-89
2022/07/14 07:55:00;;;;;;;;;7.33;7.33;;;;;28.89;67.88;101402.38;6334219;22;45288;-88
2022/07/14 07:57:25;;;;;;;;;8.67;7.33;;;;;29.00;67.81;101412.06;6304237;22;45359;-89
2022/07/14 07:59:51;;;;;;;;;8.00;7.00;;;;;29.13;68.08;101412.72;6299751;22;45608;-88
2022/07/14 08:02:17;;;;;;;;;7.00;7.00;;;;;29.27;67.69;101422.34;6332483;22;45362;-88
2022/07/14 08:04:43;;;;;;;;;8.00;7.00;;;;;29.34;67.36;101421.25;6334438;22;45535;-91
2022/07/14 08:07:08;;;;;;;;;7.33;7.33;;;;;29.40;67.10;101428.34;6302275;22;45356;-91
2022/07/14 08:09:33;;;;;;;;;10.00;10.00;;;;;29.45;67.07;101432.72;6332003;22;45506;-90
2022/07/14 08:11:59;;;;;;;;;8.33;8.33;;;;;29.52;66.66;101435.28;6331824;22;45244;-89
2022/07/14 08:17:09;;;;;;;;;9.00;9.00;;;;;29.56;66.67;101427.03;6335644;22;45353;-90
2022/07/14 08:19:35;;;;;;;;;7.00;7.00;;;;;29.59;65.98;101445.00;6309084;22;45261;-90
2022/07/14 08:22:00;;;;;;;;;8.33;7.33;;;;;29.58;65.97;101448.66;6301545;22;45337;-90
2022/07/14 08:24:26;;;;;;;;;8.67;8.00;;;;;29.56;65.41;101448.66;6331246;22;58532;-89
2022/07/14 08:26:52;;;;;;;;;7.00;7.00;;;;;29.60;65.77;101448.59;6331321;22;45359;-89
2022/07/14 08:29:17;;;;;;;;;9.67;6.67;;;;;29.67;65.96;101455.63;6302744;22;45364;-89
2022/07/14 08:31:43;;;;;;;;;10.00;8.33;;;;;29.75;65.74;101453.69;6331477;22;45395;-87
2022/07/14 08:34:08;;;;;;;;;8.00;8.00;;;;;29.85;65.43;101458.84;6332063;22;54459;-88
2022/07/14 08:36:33;;;;;;;;;8.33;8.33;;;;;29.93;65.80;101458.66;6331825;22;45344;-89
2022/07/14 08:39:01;;;;;;;;;9.33;9.33;;;;;30.02;65.24;101461.16;6305574;22;45719;-91
2022/07/14 08:41:27;;;;;;;;;8.33;8.00;;;;;30.16;65.58;101470.72;6335439;22;45612;-91
2022/07/14 08:43:52;;;;;;;;;8.33;8.33;;;;;30.23;65.04;101453.38;6307017;22;46795;-92
2022/07/14 08:46:18;;;;;;;;;9.67;8.67;;;;;30.36;65.01;101466.63;6342529;22;45351;-93
2022/07/14 08:48:46;;;;;;;;;9.67;8.33;;;;;30.38;64.76;101464.75;6315371;22;45252;-92
2022/07/14 08:51:12;;;;;;;;;6.00;6.00;;;;;30.45;64.27;101469.97;6313061;22;45508;-93
2022/07/14 08:53:37;;;;;;;;;8.00;7.33;;;;;30.51;64.61;101474.31;6306154;22;47301;-93
2022/07/14 08:56:03;;;;;;;;;9.33;8.33;;;;;30.60;64.09;101480.41;6306969;22;45444;-93
2022/07/14 08:58:28;;;;;;;;;7.67;7.00;;;;;30.65;63.94;101479.34;6307464;22;45499;-93
2022/07/14 09:00:54;;;;;;;;;9.00;6.00;;;;;30.71;64.12;101494.56;6307467;22;45241;-94
2022/07/14 09:03:19;;;;;;;;;8.33;8.33;;;;;30.81;63.93;101497.88;6307113;22;47274;-93
2022/07/14 09:05:45;;;;;;;;;7.67;7.67;;;;;30.84;63.58;101489.69;6309178;22;45393;-92
2022/07/14 09:08:14;;;;;;;;;8.00;8.00;;;;;30.94;63.72;101500.28;6308108;22;45385;-93
2022/07/14 09:10:42;;;;;;;;;7.33;6.67;;;;;31.04;63.54;101493.66;6308425;22;45617;-93
2022/07/14 09:13:15;;;;;;;;;8.00;8.00;;;;;31.14;62.82;101505.09;6308161;22;47015;-91
2022/07/14 09:15:44;;;;;;;;;8.00;6.67;;;;;31.16;63.24;101489.66;6308551;22;45242;-93
2022/07/14 09:18:12;;;;;;;;;7.67;7.67;;;;;31.28;62.92;101493.84;6313850;22;45312;-93
2022/07/14 09:20:38;;;;;;;;;7.67;7.67;;;;;31.37;62.96;101481.81;6317714;22;45301;-93
2022/07/14 09:23:04;;;;;;;;;9.00;7.67;;;;;31.54;62.23;101489.44;6317162;22;47151;-93
2022/07/14 09:25:31;;;;;;;;;5.67;5.67;;;;;31.67;62.27;101492.66;6337537;22;45195;-93
2022/07/14 09:27:57;;;;;;;;;6.67;6.67;;;;;31.74;61.55;101489.75;6310378;22;45449;-92
2022/07/14 10:42:16;;;;;;;;;4.00;4.00;;;;;49.02;40.68;101578.75;6318581;22;45321;-95
2022/07/14 10:44:47;;;;;;;;;4.00;4.00;;;;;49.93;37.09;101551.28;6278849;22;46119;-91
2022/07/14 10:47:15;;;;;;;;;3.67;3.00;;;;;50.76;37.90;101553.09;6280308;22;45280;-91
2022/07/14 10:50:00;;;;;;;;;4.00;4.00;;;;;51.51;35.77;101563.94;6306355;22;45305;-91
2022/07/14 10:52:29;;;;;;;;;3.00;3.00;;;;;52.16;36.19;101556.22;6277891;22;45195;-89
2022/07/14 10:55:23;;;;;;;;;4.00;4.00;;;;;53.01;35.91;101568.25;6284977;22;48102;-90
2022/07/14 10:58:04;;;;;;;;;4.67;4.67;;;;;53.93;33.42;101572.50;6284074;22;45336;-91
2022/07/14 11:00:45;;;;;;;;;3.67;3.67;;;;;54.77;33.71;101576.53;6306386;22;45799;-91
2022/07/14 11:03:16;;;;;;;;;3.67;3.67;;;;;55.52;31.68;101566.41;6304070;22;45552;-91
2022/07/14 11:08:28;;;;;;;;;8.00;7.67;;;;;56.66;30.77;101560.03;6303645;22;45444;-92
2022/07/14 11:10:54;;;;;;;;;6.00;6.00;;;;;57.15;28.04;101552.00;6276540;22;45373;-92
2022/07/14 11:13:20;;;;;;;;;5.00;5.00;;;;;57.48;28.86;101566.13;6305607;22;45329;-92
2022/07/14 11:15:53;;;;;;;;;5.00;5.00;;;;;58.03;28.24;101578.72;6276309;22;48412;-93
2022/07/14 11:18:27;;;;;;;;;9.33;8.67;;;;;58.63;28.34;101577.47;6304593;22;45443;-93
2022/07/14 11:20:56;;;;;;;;;66.00;55.50;;;;;59.12;27.04;101570.97;6274921;22;45424;-91
2022/07/14 11:23:36;;;;;;;;;138.00;129.25;;;;;59.41;27.28;101557.00;6303529;22;45339;-92
2022/07/14 11:26:26;;;;;;;;;88.67;83.00;;;;;59.81;27.14;101561.19;6284183;22;46956;-93
2022/07/14 11:28:52;;;;;;;;;183.50;167.25;;;;;60.30;27.32;101569.63;6283879;22;46076;-93
2022/07/14 11:31:21;;;;;;;;;47.00;36.75;;;;;60.86;26.24;101571.97;6307882;22;45427;-93
2022/07/14 11:36:34;;;;;;;;;20.75;17.00;;;;;61.98;25.70;101574.50;6307488;22;45465;-90
2022/07/14 11:39:27;;;;;;;;;23.50;23.25;;;;;62.34;25.26;101556.25;6287222;22;46310;-90
2022/07/14 11:42:48;;;;;;;;;31.75;29.00;;;;;62.76;24.65;101551.94;6286023;22;45392;-89
2022/07/14 11:45:56;;;;;;;;;21.50;20.75;;;;;63.21;24.22;101565.19;6272182;22;45136;-92
2022/07/14 11:48:23;;;;;;;;;4.67;4.33;;;;;63.66;23.42;101570.72;6269037;22;46606;-92
2022/07/14 11:50:49;;;;;;;;;24.75;24.75;;;;;63.97;23.74;101559.53;6270429;22;45380;-92
2022/07/14 11:53:17;;;;;;;;;16.50;16.50;;;;;64.29;23.00;101559.69;6244876;22;45303;-92
2022/07/14 11:55:43;;;;;;;;;10.25;9.75;;;;;64.46;22.50;101553.78;6275008;22;45249;-92
2022/07/14 11:58:08;;;;;;;;;18.25;16.25;;;;;64.60;22.52;101548.41;6277070;22;45476;-92
2022/07/14 12:00:35;;;;;;;;;25.75;25.75;;;;;64.91;22.73;101549.59;6276265;22;45355;-93
2022/07/14 12:03:04;;;;;;;;;26.00;23.25;;;;;65.21;22.00;101554.47;6246791;22;45355;-90
2022/07/14 12:05:31;;;;;;;;;19.50;18.50;;;;;65.54;21.16;101542.78;6269762;22;45380;-92
2022/07/14 12:08:03;;;;;;;;;36.25;32.25;;;;;66.05;21.72;101540.09;6270796;22;47383;-94
2022/07/14 12:10:35;;;;;;;;;44.00;37.25;;;;;66.62;21.09;101553.25;6244647;22;45382;-94
2022/07/14 12:13:00;;;;;;;;;37.50;30.75;;;;;66.98;20.83;101545.56;6244440;22;45437;-93
2022/07/14 12:15:26;;;;;;;;;20.75;20.75;;;;;67.29;21.06;101538.75;6272306;22;45518;-94
2022/07/14 12:17:54;;;;;;;;;12.75;12.25;;;;;67.63;20.29;101540.69;6246280;22;47884;-93
2022/07/14 12:20:21;;;;;;;;;12.00;11.25;;;;;67.82;19.90;101544.78;6250632;22;45289;-91
2022/07/14 12:22:58;;;;;;;;;71.00;70.33;;;;;68.05;20.50;101534.44;6276274;22;45416;-94
2022/07/14 12:25:33;;;;;;;;;10.25;8.75;;;;;68.30;19.94;101537.28;6269052;22;45431;-93
2022/07/14 12:28:05;;;;;;;;;18.00;17.25;;;;;68.71;19.40;101543.56;6284974;22;46916;-92
2022/07/14 12:30:57;;;;;;;;;29.50;27.25;;;;;69.01;18.49;101541.34;6312560;22;45528;-96
2022/07/14 12:33:30;;;;;;;;;3.25;3.25;;;;;69.26;19.32;101542.06;6279244;22;45461;-92
2022/07/14 12:35:58;;;;;;;;;22.50;21.75;;;;;69.51;18.44;101554.25;6276701;22;45217;-95
2022/07/14 12:38:30;;;;;;;;;4.50;4.50;;;;;69.38;18.47;101534.97;6278899;22;47021;-91
2022/07/14 12:41:06;;;;;;;;;19.75;18.50;;;;;69.45;17.79;101535.41;6285129;22;45345;-96
2022/07/14 12:43:34;;;;;;;;;77.00;74.50;;;;;69.54;18.56;101543.28;6253618;22;45216;-94
2022/07/14 12:46:13;;;;;;;;;5.75;5.75;;;;;69.46;17.16;101557.22;6283600;22;45834;-95
2022/07/14 12:49:14;;;;;;;;;8.00;6.75;;;;;69.18;17.63;101525.59;6308667;22;46120;-94
2022/07/14 12:51:45;;;;;;;;;64.33;57.00;;;;;69.60;18.34;101551.47;6275862;22;45475;-95
2022/07/14 12:54:33;;;;;;;;;77.33;75.00;;;;;69.81;17.64;101550.22;6307670;22;45205;-95
2022/07/14 12:56:59;;;;;;;;;9.25;9.25;;;;;69.98;17.05;101554.50;6317661;22;45311;-94
2022/07/14 12:59:30;;;;;;;;;20.50;20.25;;;;;69.91;17.49;101543.38;6290841;22;46896;-96
2022/07/14 13:02:09;;;;;;;;;7.75;7.25;;;;;69.96;17.53;101528.94;6287365;22;45542;-95
2022/07/14 13:04:43;;;;;;;;;15.50;15.50;;;;;70.25;17.53;101546.97;6278291;22;45380;-94
2022/07/14 13:07:15;;;;;;;;;4.00;4.00;;;;;70.59;17.50;101553.38;6275702;22;45681;-95
2022/07/14 13:10:06;;;;;;;;;4.75;4.75;;;;;70.87;17.29;101549.53;6277166;22;46749;-96
2022/07/14 13:12:34;;;;;;;;;3.50;3.50;;;;;71.22;17.35;101543.97;6276385;22;45368;-95
2022/07/14 13:15:16;;;;;;;;;6.75;6.75;;;;;71.30;17.33;101527.13;6316584;22;45311;-92
2022/07/14 13:18:00;;;;;;;;;2.00;2.00;;;;;71.90;16.60;101550.72;6306010;22;45439;-96
2022/07/14 13:21:01;;;;;;;;;5.00;5.00;;;;;72.09;16.95;101549.59;6276383;22;48083;-92
2022/07/14 13:23:38;;;;;;;;;5.75;5.75;;;;;72.25;16.99;101541.25;6181714;22;45707;-93
2022/07/14 13:26:14;;;;;;;;;8.50;8.50;;;;;72.47;16.97;101521.28;6184331;22;45359;-94
2022/07/14 13:28:45;;;;;;;;;12.50;11.50;;;;;72.66;17.26;101532.47;6217784;22;45454;-94
2022/07/14 13:31:19;;;;;;;;;17.75;17.00;;;;;72.80;16.93;101540.94;6217096;22;45283;-94
2022/07/14 13:33:46;;;;;;;;;18.25;18.25;;;;;72.68;16.75;101529.25;6217449;22;45313;-94
2022/07/14 13:36:13;;;;;;;;;18.00;17.25;;;;;72.63;16.19;101546.72;6184121;22;45254;-94
2022/07/14 13:38:39;;;;;;;;;12.00;12.00;;;;;72.66;16.79;101546.03;6182460;22;45623;-94
2022/07/14 13:41:05;;;;;;;;;11.75;11.75;;;;;72.70;16.00;101550.78;6208387;22;45481;-93
2022/07/14 13:43:31;;;;;;;;;7.75;7.50;;;;;72.55;16.75;101546.41;6183993;22;45715;-93
2022/07/14 13:45:56;;;;;;;;;3.50;2.75;;;;;72.61;16.64;101538.44;6183566;22;45305;-94
2022/07/14 13:48:23;;;;;;;;;7.50;7.50;;;;;72.86;17.38;101544.50;6184942;22;45626;-95
2022/07/14 13:53:33;;;;;;;;;4.00;4.00;;;;;73.11;16.04;101541.03;6205503;22;45345;-94
2022/07/14 13:55:59;;;;;;;;;5.00;5.00;;;;;72.27;16.47;101544.69;6183278;22;45462;-94
2022/07/14 13:58:25;;;;;;;;;7.75;6.75;;;;;71.90;16.65;101550.72;6291152;22;45407;-95
2022/07/14 14:00:50;;;;;;;;;6.00;6.00;;;;;71.69;16.91;101550.47;6310919;22;47049;-94
2022/07/14 14:03:26;;;;;;;;;5.00;5.00;;;;;71.61;17.15;101543.50;6311430;22;45312;-94
2022/07/14 14:05:57;;;;;;;;;3.00;3.00;;;;;71.69;17.08;101534.03;6307926;22;45328;-96
2022/07/14 14:08:43;;;;;;;;;4.00;4.00;;;;;71.92;16.00;101544.59;6305529;22;45408;-94
2022/07/14 14:11:09;;;;;;;;;4.50;4.50;;;;;71.71;16.07;101542.38;6308941;22;48092;-95
2022/07/14 14:13:35;;;;;;;;;4.00;4.00;;;;;71.58;17.02;101532.69;6302634;22;45238;-94
2022/07/14 14:16:03;;;;;;;;;4.75;4.75;;;;;71.55;17.23;101524.69;6305047;22;44701;-96
2022/07/14 14:18:32;;;;;;;;;5.00;5.00;;;;;71.70;17.07;101526.25;6301807;22;45337;-96
2022/07/14 14:21:03;;;;;;;;;4.00;4.00;;;;;71.52;15.33;101540.63;6302014;22;45504;-94
2022/07/14 14:23:30;;;;;;;;;5.00;5.00;;;;;71.34;16.58;101539.69;6302266;22;45475;-94
2022/07/14 14:25:57;;;;;;;;;4.50;4.50;;;;;71.24;16.81;101543.66;6316564;22;45425;-95
2022/07/14 14:28:42;;;;;;;;;5.25;5.25;;;;;71.15;16.98;101540.75;6315360;22;45271;-92
2022/07/14 14:31:08;;;;;;;;;6.50;6.50;;;;;71.04;17.35;101525.81;6316195;22;47248;-95
2022/07/14 14:36:13;;;;;;;;;4.50;4.50;;;;;71.03;16.17;101524.97;6301227;22;45771;-94
2022/07/14 14:38:40;;;;;;;;;5.25;5.25;;;;;70.80;17.02;101533.59;6289666;22;45328;-95
2022/07/14 14:41:09;;;;;;;;;6.75;5.75;;;;;70.59;16.78;101527.50;6315202;22;45505;-93
2022/07/14 14:43:34;;;;;;;;;4.75;4.50;;;;;70.10;16.98;101523.16;6292079;22;44619;-94
2022/07/14 14:45:59;;;;;;;;;6.00;6.00;;;;;69.90;17.24;101535.94;6292199;22;45230;-95
2022/07/14 14:48:26;;;;;;;;;7.00;7.00;;;;;69.72;16.86;101530.03;6316887;22;45273;-93
2022/07/14 14:50:51;;;;;;;;;6.25;6.00;;;;;69.29;17.58;101527.09;6258138;22;47270;-96
2022/07/14 14:53:29;;;;;;;;;;;;;;;;;;;;;
2022/07/14 14:56:02;;;;;;;;;7.50;7.00;;;;;64.99;18.18;101518.53;6233889;22;68692;-95
2022/07/14 14:58:31;;;;;;;;;8.75;8.00;;;;;61.86;18.80;101499.94;6290569;22;45488;-93
2022/07/14 15:00:56;;;;;;;;;7.00;6.50;;;;;59.27;19.97;101499.81;6267991;22;47629;-95
2022/07/14 15:03:22;;;;;;;;;6.50;6.50;;;;;57.01;21.16;101514.56;6291428;22;45311;-95
2022/07/14 15:05:50;;;;;;;;;6.75;6.75;;;;;54.87;21.57;101501.13;6291742;22;45340;-95
2022/07/14 15:08:15;;;;;;;;;11.25;9.75;;;;;53.32;22.82;101504.56;6287785;22;44868;-93
2022/07/14 15:10:43;;;;;;;;;8.00;8.00;;;;;51.73;23.60;101493.28;6320847;22;45538;-92
2022/07/14 15:13:09;;;;;;;;;8.00;6.75;;;;;50.35;24.92;101499.09;6295233;22;44677;-94
2022/07/14 15:15:35;;;;;;;;;9.75;9.75;;;;;48.94;26.39;101493.25;6290420;22;45287;-95
2022/07/14 15:20:35;;;;;;;;;8.25;7.00;;;;;46.74;27.70;101493.47;6343318;22;46180;-94
2022/07/14 15:23:01;;;;;;;;;6.25;6.00;;;;;45.86;28.81;101504.63;6323059;22;45284;-95
2022/07/14 15:25:33;;;;;;;;;7.00;7.00;;;;;45.09;29.24;101508.88;6321785;22;46480;-94
2022/07/14 15:27:59;;;;;;;;;7.50;7.00;;;;;44.30;29.35;101489.13;6351438;22;45307;-94
2022/07/14 15:30:24;;;;;;;;;7.00;7.00;;;;;43.66;30.51;101501.84;6352622;22;48122;-94
2022/07/14 15:32:49;;;;;;;;;4.25;4.25;;;;;42.99;30.87;101485.31;6351217;22;45245;-94
2022/07/14 15:35:18;;;;;;;;;7.33;7.00;;;;;42.50;31.28;101488.31;6351700;22;45250;-94
2022/07/14 15:37:44;;;;;;;;;7.00;7.00;;;;;42.10;31.49;101507.00;6350834;22;44876;-94
2022/07/14 15:42:53;;;;;;;;;7.67;7.33;;;;;41.22;32.66;101508.94;6347745;22;45383;-94
2022/07/14 15:45:19;;;;;;;;;7.33;7.33;;;;;40.80;33.15;101494.56;6351304;22;45225;-93
2022/07/14 15:47:44;;;;;;;;;11.00;9.00;;;;;40.34;33.66;101503.22;6347478;22;45272;-94
2022/07/14 15:50:12;;;;;;;;;16.75;16.25;;;;;39.95;34.23;101509.50;6346586;22;47469;-95
2022/07/14 15:52:41;;;;;;;;;6.67;6.67;;;;;39.59;34.64;101520.13;6345793;22;45365;-94
2022/07/14 15:55:09;;;;;;;;;8.00;8.00;;;;;39.26;35.25;101507.63;6346604;22;45261;-94
2022/07/14 15:57:36;;;;;;;;;8.67;7.00;;;;;39.02;35.38;101494.56;6373629;22;45361;-93
2022/07/14 16:00:04;;;;;;;;;7.33;7.00;;;;;38.78;35.87;101505.13;6353138;22;47201;-94
2022/07/14 16:02:30;;;;;;;;;6.33;6.33;;;;;38.42;35.88;101474.47;6353972;22;45235;-95
2022/07/14 16:04:56;;;;;;;;;8.33;8.33;;;;;38.24;35.84;101490.16;6324166;22;44609;-94
2022/07/14 16:07:21;;;;;;;;;7.33;7.33;;;;;37.98;36.33;101500.84;6345965;22;45280;-95
2022/07/14 16:09:47;;;;;;;;;11.33;11.33;;;;;37.69;36.69;101481.53;6347538;22;47736;-95
2022/07/14 16:12:12;;;;;;;;;7.00;7.00;;;;;37.51;36.48;101488.00;6351995;22;45354;-93
2022/07/14 16:14:40;;;;;;;;;6.67;6.67;;;;;37.39;36.94;101502.41;6347362;22;45202;-95
2022/07/14 16:17:05;;;;;;;;;7.00;7.00;;;;;37.13;36.65;101483.75;6347806;22;45348;-94
2022/07/14 16:19:31;;;;;;;;;5.33;5.33;;;;;36.94;37.17;101487.50;6348859;22;47894;-96
2022/07/14 16:21:57;;;;;;;;;7.00;7.00;;;;;36.74;37.21;101484.00;6335211;22;45218;-94
2022/07/14 16:24:22;;;;;;;;;6.00;5.67;;;;;36.71;37.56;101495.09;6320269;22;45750;-94
2022/07/14 16:26:47;;;;;;;;;6.67;6.33;;;;;36.47;37.46;101475.47;6315868;22;45249;-93
2022/07/14 16:29:16;;;;;;;;;5.00;5.00;;;;;36.45;37.46;101483.72;6321294;22;46493;-95
2022/07/14 16:31:42;;;;;;;;;7.33;6.67;;;;;36.40;37.63;101504.94;6276200;22;45989;-93
2022/07/14 16:34:07;;;;;;;;;6.00;6.00;;;;;36.17;37.78;101490.63;6288311;22;45266;-93
2022/07/14 16:36:33;;;;;;;;;6.00;6.00;;;;;36.11;37.70;101502.75;6306988;22;45312;-94
2022/07/14 16:38:59;;;;;;;;;6.00;6.00;;;;;35.83;37.66;101480.47;6301996;22;45622;-96
2022/07/14 16:41:24;;;;;;;;;7.00;7.00;;;;;35.74;37.99;101497.31;6285541;22;45299;-95
2022/07/14 16:43:50;;;;;;;;;7.00;5.67;;;;;35.55;37.78;101493.66;6255226;22;45289;-96
2022/07/14 16:46:19;;;;;;;;;4.67;4.67;;;;;35.50;37.69;101514.84;6277898;22;45519;-96
2022/07/14 16:48:44;;;;;;;;;5.00;5.00;;;;;35.28;37.91;101498.59;6307144;22;45260;-94
2022/07/14 16:51:11;;;;;;;;;4.33;3.67;;;;;35.11;37.60;101500.28;6278523;22;45766;-95
2022/07/14 17:01:37;;;;;;;;;8.00;5.00;;;;;34.74;38.52;101519.22;6297407;22;45428;-96
2022/07/14 17:04:02;;;;;;;;;5.00;5.00;;;;;34.59;37.70;101513.50;6248804;22;45383;-94
2022/07/14 17:06:29;;;;;;;;;4.00;3.00;;;;;34.45;37.59;101498.66;6275942;22;45535;-96
2022/07/14 17:08:54;;;;;;;;;4.00;4.00;;;;;34.48;38.06;101524.00;6275569;22;46112;-95
2022/07/14 17:11:21;;;;;;;;;5.33;5.33;;;;;34.39;38.31;101515.28;6274397;22;45516;-96
2022/07/14 17:13:48;;;;;;;;;2.67;2.67;;;;;34.31;38.20;101520.16;6274910;22;45263;-94
2022/07/14 17:16:14;;;;;;;;;4.67;4.67;;;;;34.19;38.40;101527.00;6273198;22;45533;-95
2022/07/14 17:18:39;;;;;;;;;3.00;3.00;;;;;34.09;37.89;101529.25;6272509;22;47493;-96
2022/07/14 17:21:06;;;;;;;;;4.00;3.67;;;;;33.98;38.46;101518.81;6273586;22;45242;-96
2022/07/14 17:23:32;;;;;;;;;3.33;3.33;;;;;33.91;38.14;101526.34;6274571;22;45314;-96
2022/07/14 17:25:57;;;;;;;;;6.33;5.33;;;;;33.80;37.77;101534.06;6278659;22;45243;-96
2022/07/14 17:28:23;;;;;;;;;6.33;5.00;;;;;33.76;37.99;101538.75;6283508;22;45983;-95
2022/07/14 17:30:50;;;;;;;;;3.67;3.67;;;;;33.64;38.43;101531.94;6284646;22;45235;-95
2022/07/14 17:33:16;;;;;;;;;6.00;6.00;;;;;33.52;38.55;101538.78;6282354;22;45218;-96
2022/07/14 17:35:42;;;;;;;;;3.67;3.67;;;;;33.43;38.30;101542.72;6286308;22;45185;-96
2022/07/14 17:38:07;;;;;;;;;7.00;4.00;;;;;33.32;38.72;101546.75;6283198;22;45389;-96
2022/07/14 17:40:33;;;;;;;;;5.00;5.00;;;;;33.21;38.45;101546.28;6277403;22;45299;-92
2022/07/14 17:42:59;;;;;;;;;6.33;4.67;;;;;33.13;39.03;101549.28;6276029;22;45259;-96
2022/07/14 17:45:24;;;;;;;;;4.00;4.00;;;;;33.05;39.17;101548.69;6276289;22;45300;-96
2022/07/14 17:47:49;;;;;;;;;5.00;5.00;;;;;32.91;39.76;101543.78;6276999;22;46995;-96
2022/07/14 17:50:15;;;;;;;;;5.00;5.00;;;;;32.85;40.25;101551.22;6276918;22;58714;-96
2022/07/14 17:52:41;;;;;;;;;6.67;6.67;;;;;32.81;40.50;101549.53;6277683;22;45348;-96
2022/07/14 17:55:08;;;;;;;;;5.67;5.67;;;;;32.73;40.50;101555.25;6280017;22;45241;-96
2022/07/14 17:57:33;;;;;;;;;4.00;4.00;;;;;32.63;40.98;101561.91;6277536;22;48121;-96
2022/07/14 17:59:59;;;;;;;;;6.00;4.67;;;;;32.53;41.10;101561.34;6290675;22;49997;-94
2022/07/14 18:02:25;;;;;;;;;5.33;5.33;;;;;32.50;41.45;101561.50;6291377;22;44744;-93